sensor_id;sensor_type;location;lat;lon;timestamp;pressure;altitude;pressure_sealevel;temperature;humidity
73860;BME280;62197;51.632;13.700;2023-11-21T00:01:43;99705.88;;;6.31;94.86
73860;BME280;62197;51.632;13.700;2023-11-21T00:04:09;99706.34;;;6.25;94.81
73860;BME280;62197;51.632;13.700;2023-11-21T00:06:34;99708.28;;;6.23;94.87
73860;BME280;62197;51.632;13.700;2023-11-21T00:09:00;99706.88;;;6.19;95.19
73860;BME280;62197;51.632;13.700;2023-11-21T00:11:25;99708.88;;;6.15;94.86
73860;BME280;62197;51.632;13.700;2023-11-21T00:13:51;99708.28;;;6.12;95.41
73860;BME280;62197;51.632;13.700;2023-11-21T00:16:16;99710.06;;;6.11;95.02
73860;BME280;62197;51.632;13.700;2023-11-21T00:18:41;99709.47;;;6.08;94.98
73860;BME280;62197;51.632;13.700;2023-11-21T00:21:07;99701.88;;;6.05;95.33
73860;BME280;62197;51.632;13.700;2023-11-21T00:23:34;99718.25;;;6.07;95.39
73860;BME280;62197;51.632;13.700;2023-11-21T00:25:59;99710.31;;;6.08;95.21
73860;BME280;62197;51.632;13.700;2023-11-21T00:28:25;99709.72;;;6.05;95.38
73860;BME280;62197;51.632;13.700;2023-11-21T00:30:51;99708.88;;;6.04;95.33
73860;BME280;62197;51.632;13.700;2023-11-21T00:33:16;99712.22;;;6.06;95.27
73860;BME280;62197;51.632;13.700;2023-11-21T00:35:42;99716.84;;;6.03;95.41
73860;BME280;62197;51.632;13.700;2023-11-21T00:38:07;99712.44;;;6.03;95.59
73860;BME280;62197;51.632;13.700;2023-11-21T00:40:33;99723.00;;;6.02;95.44
73860;BME280;62197;51.632;13.700;2023-11-21T00:42:59;99720.41;;;6.02;95.61
73860;BME280;62197;51.632;13.700;2023-11-21T00:45:24;99714.34;;;6.01;95.74
73860;BME280;62197;51.632;13.700;2023-11-21T00:47:50;99718.72;;;6.01;95.35
73860;BME280;62197;51.632;13.700;2023-11-21T00:50:15;99726.09;;;6.07;95.42
73860;BME280;62197;51.632;13.700;2023-11-21T00:52:41;99723.47;;;6.07;95.50
73860;BME280;62197;51.632;13.700;2023-11-21T00:55:06;99735.72;;;6.06;95.03
73860;BME280;62197;51.632;13.700;2023-11-21T00:57:33;99731.78;;;6.12;95.11
73860;BME280;62197;51.632;13.700;2023-11-21T00:59:58;99730.97;;;6.11;94.97
73860;BME280;62197;51.632;13.700;2023-11-21T01:02:23;99733.22;;;6.16;95.10
73860;BME280;62197;51.632;13.700;2023-11-21T01:04:49;99736.78;;;6.15;94.90
73860;BME280;62197;51.632;13.700;2023-11-21T01:07:14;99736.91;;;6.13;94.82
73860;BME280;62197;51.632;13.700;2023-11-21T01:09:39;99737.72;;;6.14;95.26
73860;BME280;62197;51.632;13.700;2023-11-21T01:12:05;99740.34;;;6.14;94.87
73860;BME280;62197;51.632;13.700;2023-11-21T01:14:30;99757.44;;;6.18;95.15
73860;BME280;62197;51.632;13.700;2023-11-21T01:16:55;99748.41;;;6.22;95.02
73860;BME280;62197;51.632;13.700;2023-11-21T01:19:21;99755.84;;;6.26;95.00
73860;BME280;62197;51.632;13.700;2023-11-21T01:21:46;99747.53;;;6.32;94.67
73860;BME280;62197;51.632;13.700;2023-11-21T01:24:12;99752.66;;;6.34;94.66
73860;BME280;62197;51.632;13.700;2023-11-21T01:26:37;99750.88;;;6.35;94.20
73860;BME280;62197;51.632;13.700;2023-11-21T01:29:02;99747.44;;;6.34;94.16
73860;BME280;62197;51.632;13.700;2023-11-21T01:31:28;99748.38;;;6.33;94.33
73860;BME280;62197;51.632;13.700;2023-11-21T01:33:58;99752.88;;;6.31;94.46
73860;BME280;62197;51.632;13.700;2023-11-21T01:36:29;99752.19;;;6.29;94.59
73860;BME280;62197;51.632;13.700;2023-11-21T01:38:57;99752.88;;;6.31;94.29
73860;BME280;62197;51.632;13.700;2023-11-21T01:41:25;99752.88;;;6.31;94.27
73860;BME280;62197;51.632;13.700;2023-11-21T01:43:52;99751.94;;;6.32;94.53
73860;BME280;62197;51.632;13.700;2023-11-21T01:46:19;99757.75;;;6.36;93.84
73860;BME280;62197;51.632;13.700;2023-11-21T01:48:45;99759.53;;;6.35;94.06
73860;BME280;62197;51.632;13.700;2023-11-21T01:51:11;99761.31;;;6.35;93.92
73860;BME280;62197;51.632;13.700;2023-11-21T01:53:36;99763.81;;;6.36;94.04
73860;BME280;62197;51.632;13.700;2023-11-21T01:56:02;99755.97;;;6.36;93.99
73860;BME280;62197;51.632;13.700;2023-11-21T01:58:27;99762.84;;;6.37;94.07
73860;BME280;62197;51.632;13.700;2023-11-21T02:00:53;99764.53;;;6.38;94.24
73860;BME280;62197;51.632;13.700;2023-11-21T02:03:20;99769.63;;;6.40;94.12
73860;BME280;62197;51.632;13.700;2023-11-21T02:05:45;99771.41;;;6.39;94.17
73860;BME280;62197;51.632;13.700;2023-11-21T02:08:11;99767.00;;;6.40;94.28
73860;BME280;62197;51.632;13.700;2023-11-21T02:10:36;99770.56;;;6.39;94.22
73860;BME280;62197;51.632;13.700;2023-11-21T02:13:02;99774.72;;;6.41;94.26
73860;BME280;62197;51.632;13.700;2023-11-21T02:15:28;99766.91;;;6.41;93.93
73860;BME280;62197;51.632;13.700;2023-11-21T02:17:54;99771.28;;;6.41;94.30
73860;BME280;62197;51.632;13.700;2023-11-21T02:20:20;99776.41;;;6.42;94.09
73860;BME280;62197;51.632;13.700;2023-11-21T02:22:51;99771.16;;;6.42;94.23
73860;BME280;62197;51.632;13.700;2023-11-21T02:25:26;99761.78;;;6.40;94.24
73860;BME280;62197;51.632;13.700;2023-11-21T02:27:53;99768.44;;;6.44;94.16
73860;BME280;62197;51.632;13.700;2023-11-21T02:30:20;99768.31;;;6.45;94.27
73860;BME280;62197;51.632;13.700;2023-11-21T02:32:47;99766.06;;;6.41;94.15
73860;BME280;62197;51.632;13.700;2023-11-21T02:35:13;99770.09;;;6.45;94.10
73860;BME280;62197;51.632;13.700;2023-11-21T02:37:38;99768.44;;;6.44;94.43
73860;BME280;62197;51.632;13.700;2023-11-21T02:40:04;99767.72;;;6.42;94.32
73860;BME280;62197;51.632;13.700;2023-11-21T02:42:31;99769.50;;;6.41;94.61
73860;BME280;62197;51.632;13.700;2023-11-21T02:44:56;99767.84;;;6.40;94.28
73860;BME280;62197;51.632;13.700;2023-11-21T02:47:22;99769.88;;;6.37;94.48
73860;BME280;62197;51.632;13.700;2023-11-21T02:49:48;99772.25;;;6.40;94.28
73860;BME280;62197;51.632;13.700;2023-11-21T02:52:14;99769.03;;;6.36;94.36
73860;BME280;62197;51.632;13.700;2023-11-21T02:54:39;99766.41;;;6.36;94.76
73860;BME280;62197;51.632;13.700;2023-11-21T02:57:04;99765.59;;;6.36;94.45
73860;BME280;62197;51.632;13.700;2023-11-21T02:59:31;99771.75;;;6.35;94.63
73860;BME280;62197;51.632;13.700;2023-11-21T03:01:56;99773.78;;;6.31;94.91
73860;BME280;62197;51.632;13.700;2023-11-21T03:04:22;99772.25;;;6.28;94.75
73860;BME280;62197;51.632;13.700;2023-11-21T03:06:47;99777.34;;;6.30;94.82
73860;BME280;62197;51.632;13.700;2023-11-21T03:09:13;99778.19;;;6.30;94.77
73860;BME280;62197;51.632;13.700;2023-11-21T03:11:38;99779.25;;;6.28;94.81
73860;BME280;62197;51.632;13.700;2023-11-21T03:14:04;99778.41;;;6.27;94.93
73860;BME280;62197;51.632;13.700;2023-11-21T03:16:30;99781.13;;;6.26;95.15
73860;BME280;62197;51.632;13.700;2023-11-21T03:18:56;99784.47;;;6.28;95.26
73860;BME280;62197;51.632;13.700;2023-11-21T03:21:21;99785.31;;;6.28;95.15
73860;BME280;62197;51.632;13.700;2023-11-21T03:23:47;99783.63;;;6.27;94.84
73860;BME280;62197;51.632;13.700;2023-11-21T03:26:12;99788.16;;;6.25;95.03
73860;BME280;62197;51.632;13.700;2023-11-21T03:28:38;99786.63;;;6.23;94.88
73860;BME280;62197;51.632;13.700;2023-11-21T03:31:03;99785.66;;;6.24;95.10
73860;BME280;62197;51.632;13.700;2023-11-21T03:33:29;99783.88;;;6.24;94.98
73860;BME280;62197;51.632;13.700;2023-11-21T03:35:54;99781.41;;;6.23;95.20
73860;BME280;62197;51.632;13.700;2023-11-21T03:38:19;99787.69;;;6.20;95.19
73860;BME280;62197;51.632;13.700;2023-11-21T03:40:45;99782.47;;;6.20;95.42
73860;BME280;62197;51.632;13.700;2023-11-21T03:43:10;99792.91;;;6.20;95.51
73860;BME280;62197;51.632;13.700;2023-11-21T03:45:36;99783.88;;;6.24;95.30
73860;BME280;62197;51.632;13.700;2023-11-21T03:48:01;99787.47;;;6.23;95.03
73860;BME280;62197;51.632;13.700;2023-11-21T03:50:28;99790.19;;;6.22;95.21
73860;BME280;62197;51.632;13.700;2023-11-21T03:52:54;99799.81;;;6.21;95.33
73860;BME280;62197;51.632;13.700;2023-11-21T03:55:19;99796.81;;;6.26;95.07
73860;BME280;62197;51.632;13.700;2023-11-21T03:57:45;99794.31;;;6.24;95.17
73860;BME280;62197;51.632;13.700;2023-11-21T04:00:10;99797.66;;;6.26;95.27
73860;BME280;62197;51.632;13.700;2023-11-21T04:02:36;99802.16;;;6.24;95.25
73860;BME280;62197;51.632;13.700;2023-11-21T04:05:01;99799.31;;;6.27;95.05
73860;BME280;62197;51.632;13.700;2023-11-21T04:07:27;99811.41;;;6.28;95.20
73860;BME280;62197;51.632;13.700;2023-11-21T04:09:52;99802.31;;;6.23;95.11
73860;BME280;62197;51.632;13.700;2023-11-21T04:12:18;99804.19;;;6.21;95.54
73860;BME280;62197;51.632;13.700;2023-11-21T04:14:44;99808.47;;;6.22;95.25
73860;BME280;62197;51.632;13.700;2023-11-21T04:17:09;99811.91;;;6.22;95.22
73860;BME280;62197;51.632;13.700;2023-11-21T04:19:34;99823.19;;;6.23;95.18
73860;BME280;62197;51.632;13.700;2023-11-21T04:21:59;99812.59;;;6.24;95.48
73860;BME280;62197;51.632;13.700;2023-11-21T04:24:25;99820.31;;;6.26;95.25
73860;BME280;62197;51.632;13.700;2023-11-21T04:26:51;99819.13;;;6.30;95.17
73860;BME280;62197;51.632;13.700;2023-11-21T04:29:16;99825.06;;;6.32;95.05
73860;BME280;62197;51.632;13.700;2023-11-21T04:31:41;99824.13;;;6.33;95.30
73860;BME280;62197;51.632;13.700;2023-11-21T04:34:07;99824.72;;;6.37;95.29
73860;BME280;62197;51.632;13.700;2023-11-21T04:36:33;99825.91;;;6.32;94.99
73860;BME280;62197;51.632;13.700;2023-11-21T04:38:59;99831.25;;;6.31;95.10
73860;BME280;62197;51.632;13.700;2023-11-21T04:41:24;99832.19;;;6.30;95.46
73860;BME280;62197;51.632;13.700;2023-11-21T04:43:49;99832.06;;;6.31;95.49
73860;BME280;62197;51.632;13.700;2023-11-21T04:46:15;99845.84;;;6.34;95.57
73860;BME280;62197;51.632;13.700;2023-11-21T04:48:40;99837.28;;;6.31;95.25
73860;BME280;62197;51.632;13.700;2023-11-21T04:51:06;99836.34;;;6.32;95.46
73860;BME280;62197;51.632;13.700;2023-11-21T04:53:31;99827.69;;;6.32;95.25
73860;BME280;62197;51.632;13.700;2023-11-21T04:55:56;99837.28;;;6.31;95.37
73860;BME280;62197;51.632;13.700;2023-11-21T04:58:22;99843.25;;;6.34;95.44
73860;BME280;62197;51.632;13.700;2023-11-21T05:00:47;99841.56;;;6.32;95.33
73860;BME280;62197;51.632;13.700;2023-11-21T05:03:12;99838.97;;;6.32;95.77
73860;BME280;62197;51.632;13.700;2023-11-21T05:05:38;99845.84;;;6.34;96.00
73860;BME280;62197;51.632;13.700;2023-11-21T05:08:03;99852.84;;;6.33;95.65
73860;BME280;62197;51.632;13.700;2023-11-21T05:10:29;99850.25;;;6.33;95.68
73860;BME280;62197;51.632;13.700;2023-11-21T05:12:55;99853.34;;;6.38;95.70
73860;BME280;62197;51.632;13.700;2023-11-21T05:15:20;99855.34;;;6.35;95.44
73860;BME280;62197;51.632;13.700;2023-11-21T05:17:46;99857.72;;;6.38;95.56
73860;BME280;62197;51.632;13.700;2023-11-21T05:20:15;99853.44;;;6.37;95.47
73860;BME280;62197;51.632;13.700;2023-11-21T05:22:45;99861.28;;;6.37;95.88
73860;BME280;62197;51.632;13.700;2023-11-21T05:25:11;99862.59;;;6.42;95.39
73860;BME280;62197;51.632;13.700;2023-11-21T05:27:36;99863.78;;;6.38;95.39
73860;BME280;62197;51.632;13.700;2023-11-21T05:30:02;99864.72;;;6.37;95.82
73860;BME280;62197;51.632;13.700;2023-11-21T05:32:30;99864.03;;;6.35;95.70
73860;BME280;62197;51.632;13.700;2023-11-21T05:34:55;99875.66;;;6.42;95.54
73860;BME280;62197;51.632;13.700;2023-11-21T05:37:21;99869.72;;;6.40;95.74
73860;BME280;62197;51.632;13.700;2023-11-21T05:39:46;99874.59;;;6.45;96.02
73860;BME280;62197;51.632;13.700;2023-11-21T05:42:12;99873.06;;;6.53;95.74
73860;BME280;62197;51.632;13.700;2023-11-21T05:44:41;99875.69;;;6.53;95.48
73860;BME280;62197;51.632;13.700;2023-11-21T05:47:07;99874.72;;;6.54;95.52
73860;BME280;62197;51.632;13.700;2023-11-21T05:49:32;99874.00;;;6.52;95.60
73860;BME280;62197;51.632;13.700;2023-11-21T05:51:58;99886.47;;;6.49;96.07
73860;BME280;62197;51.632;13.700;2023-11-21T05:54:24;99892.44;;;6.62;96.22
73860;BME280;62197;51.632;13.700;2023-11-21T05:56:50;99896.94;;;6.49;95.92
73860;BME280;62197;51.632;13.700;2023-11-21T05:59:15;99902.03;;;6.39;95.32
73860;BME280;62197;51.632;13.700;2023-11-21T06:01:40;99903.31;;;6.22;95.77
73860;BME280;62197;51.632;13.700;2023-11-21T06:04:06;99908.69;;;5.97;95.34
73860;BME280;62197;51.632;13.700;2023-11-21T06:06:33;99908.97;;;5.81;95.16
73860;BME280;62197;51.632;13.700;2023-11-21T06:08:58;99916.78;;;5.70;95.47
73860;BME280;62197;51.632;13.700;2023-11-21T06:11:24;99914.38;;;5.67;95.50
73860;BME280;62197;51.632;13.700;2023-11-21T06:13:49;99919.03;;;5.51;94.19
73860;BME280;62197;51.632;13.700;2023-11-21T06:16:15;99920.34;;;5.32;94.49
73860;BME280;62197;51.632;13.700;2023-11-21T06:18:42;99932.34;;;5.35;94.25
73860;BME280;62197;51.632;13.700;2023-11-21T06:21:11;99940.09;;;5.24;95.18
73860;BME280;62197;51.632;13.700;2023-11-21T06:23:37;99939.53;;;5.08;95.32
73860;BME280;62197;51.632;13.700;2023-11-21T06:26:02;99944.84;;;5.06;94.71
73860;BME280;62197;51.632;13.700;2023-11-21T06:28:29;99953.41;;;4.95;94.94
73860;BME280;62197;51.632;13.700;2023-11-21T06:30:55;99959.47;;;4.96;94.96
73860;BME280;62197;51.632;13.700;2023-11-21T06:33:21;99965.09;;;4.77;95.71
73860;BME280;62197;51.632;13.700;2023-11-21T06:35:47;99970.31;;;4.77;95.97
73860;BME280;62197;51.632;13.700;2023-11-21T06:38:12;99959.47;;;4.83;96.01
73860;BME280;62197;51.632;13.700;2023-11-21T06:40:37;99964.25;;;4.77;95.43
73860;BME280;62197;51.632;13.700;2023-11-21T06:43:03;99968.13;;;4.71;95.05
73860;BME280;62197;51.632;13.700;2023-11-21T06:45:30;99974.50;;;4.67;95.75
73860;BME280;62197;51.632;13.700;2023-11-21T06:47:55;99976.13;;;4.68;95.47
73860;BME280;62197;51.632;13.700;2023-11-21T06:50:20;99978.44;;;4.73;95.58
73860;BME280;62197;51.632;13.700;2023-11-21T06:52:46;99983.34;;;4.64;95.40
73860;BME280;62197;51.632;13.700;2023-11-21T06:55:11;99980.66;;;4.66;95.45
73860;BME280;62197;51.632;13.700;2023-11-21T06:57:37;99990.22;;;4.65;95.59
73860;BME280;62197;51.632;13.700;2023-11-21T07:00:04;99985.31;;;4.99;96.59
73860;BME280;62197;51.632;13.700;2023-11-21T07:02:29;99994.38;;;5.06;94.57
73860;BME280;62197;51.632;13.700;2023-11-21T07:04:55;100003.25;;;5.04;94.28
73860;BME280;62197;51.632;13.700;2023-11-21T07:07:20;99999.69;;;4.92;94.65
73860;BME280;62197;51.632;13.700;2023-11-21T07:09:46;100005.31;;;4.86;94.50
73860;BME280;62197;51.632;13.700;2023-11-21T07:12:11;100006.25;;;4.72;94.50
73860;BME280;62197;51.632;13.700;2023-11-21T07:14:37;100004.78;;;4.68;94.51
73860;BME280;62197;51.632;13.700;2023-11-21T07:17:04;100007.22;;;4.58;95.14
73860;BME280;62197;51.632;13.700;2023-11-21T07:19:29;100015.75;;;4.60;95.57
73860;BME280;62197;51.632;13.700;2023-11-21T07:21:55;100023.78;;;4.57;95.96
73860;BME280;62197;51.632;13.700;2023-11-21T07:24:20;100026.06;;;4.62;94.99
73860;BME280;62197;51.632;13.700;2023-11-21T07:26:46;100029.59;;;4.48;94.67
73860;BME280;62197;51.632;13.700;2023-11-21T07:29:11;100028.66;;;4.49;94.65
73860;BME280;62197;51.632;13.700;2023-11-21T07:31:37;100037.81;;;4.42;94.90
73860;BME280;62197;51.632;13.700;2023-11-21T07:34:03;100032.59;;;4.42;95.08
73860;BME280;62197;51.632;13.700;2023-11-21T07:36:28;100032.25;;;4.34;95.15
73860;BME280;62197;51.632;13.700;2023-11-21T07:38:54;100033.59;;;4.27;95.51
73860;BME280;62197;51.632;13.700;2023-11-21T07:41:19;100039.09;;;4.22;95.61
73860;BME280;62197;51.632;13.700;2023-11-21T07:43:45;100048.03;;;4.18;95.44
73860;BME280;62197;51.632;13.700;2023-11-21T07:46:11;100052.00;;;4.11;94.09
73860;BME280;62197;51.632;13.700;2023-11-21T07:48:38;100057.72;;;4.16;93.48
73860;BME280;62197;51.632;13.700;2023-11-21T07:51:04;100060.22;;;4.18;93.61
73860;BME280;62197;51.632;13.700;2023-11-21T07:53:29;100053.25;;;4.18;94.14
73860;BME280;62197;51.632;13.700;2023-11-21T07:55:55;100061.69;;;4.22;93.99
73860;BME280;62197;51.632;13.700;2023-11-21T07:58:21;100055.84;;;4.06;93.47
73860;BME280;62197;51.632;13.700;2023-11-21T08:00:46;100058.25;;;4.09;93.74
73860;BME280;62197;51.632;13.700;2023-11-21T08:03:13;100058.25;;;4.09;93.72
73860;BME280;62197;51.632;13.700;2023-11-21T08:05:38;100063.44;;;4.09;93.91
73860;BME280;62197;51.632;13.700;2023-11-21T08:08:04;100067.41;;;4.14;94.44
73860;BME280;62197;51.632;13.700;2023-11-21T08:10:29;100075.84;;;4.18;93.77
73860;BME280;62197;51.632;13.700;2023-11-21T08:12:55;100070.72;;;4.16;93.45
73860;BME280;62197;51.632;13.700;2023-11-21T08:15:20;100079.59;;;4.14;93.13
73860;BME280;62197;51.632;13.700;2023-11-21T08:17:47;100080.72;;;4.10;92.22
73860;BME280;62197;51.632;13.700;2023-11-21T08:20:12;100086.22;;;4.05;91.38
73860;BME280;62197;51.632;13.700;2023-11-21T08:22:37;100088.19;;;4.02;91.38
73860;BME280;62197;51.632;13.700;2023-11-21T08:25:06;100089.03;;;4.02;89.31
73860;BME280;62197;51.632;13.700;2023-11-21T08:27:33;100092.66;;;3.99;88.69
73860;BME280;62197;51.632;13.700;2023-11-21T08:30:00;100092.06;;;4.09;89.31
73860;BME280;62197;51.632;13.700;2023-11-21T08:32:25;100090.88;;;4.00;89.24
73860;BME280;62197;51.632;13.700;2023-11-21T08:34:50;100095.16;;;4.01;89.85
73860;BME280;62197;51.632;13.700;2023-11-21T08:37:16;100096.19;;;3.98;89.67
73860;BME280;62197;51.632;13.700;2023-11-21T08:39:43;100100.09;;;3.91;89.17
73860;BME280;62197;51.632;13.700;2023-11-21T08:42:08;100103.16;;;3.98;88.53
73860;BME280;62197;51.632;13.700;2023-11-21T08:44:33;100099.53;;;4.01;89.85
73860;BME280;62197;51.632;13.700;2023-11-21T08:46:59;100104.72;;;4.01;89.69
73860;BME280;62197;51.632;13.700;2023-11-21T08:49:24;100111.41;;;4.05;89.85
73860;BME280;62197;51.632;13.700;2023-11-21T08:51:52;100107.88;;;4.06;89.04
73860;BME280;62197;51.632;13.700;2023-11-21T08:54:20;100116.44;;;4.08;89.22
73860;BME280;62197;51.632;13.700;2023-11-21T08:56:46;100121.63;;;4.08;89.08
73860;BME280;62197;51.632;13.700;2023-11-21T08:59:11;100119.13;;;4.06;89.17
73860;BME280;62197;51.632;13.700;2023-11-21T09:01:39;100116.53;;;4.06;88.90
73860;BME280;62197;51.632;13.700;2023-11-21T09:04:06;100126.00;;;4.07;88.53
73860;BME280;62197;51.632;13.700;2023-11-21T09:06:31;100126.47;;;4.14;88.48
73860;BME280;62197;51.632;13.700;2023-11-21T09:08:57;100138.22;;;4.19;87.68
73860;BME280;62197;51.632;13.700;2023-11-21T09:11:22;100134.38;;;4.25;88.35
73860;BME280;62197;51.632;13.700;2023-11-21T09:13:49;100144.97;;;4.36;88.13
73860;BME280;62197;51.632;13.700;2023-11-21T09:16:16;100133.47;;;4.26;87.74
73860;BME280;62197;51.632;13.700;2023-11-21T09:18:41;100135.28;;;4.38;86.91
73860;BME280;62197;51.632;13.700;2023-11-21T09:21:06;100139.72;;;4.50;87.03
73860;BME280;62197;51.632;13.700;2023-11-21T09:23:32;100143.44;;;4.46;86.29
73860;BME280;62197;51.632;13.700;2023-11-21T09:25:57;100145.31;;;4.44;86.25
73860;BME280;62197;51.632;13.700;2023-11-21T09:28:25;100151.81;;;4.51;86.89
73860;BME280;62197;51.632;13.700;2023-11-21T09:30:52;100142.66;;;4.58;85.73
73860;BME280;62197;51.632;13.700;2023-11-21T09:33:18;100138.72;;;4.65;85.99
73860;BME280;62197;51.632;13.700;2023-11-21T09:35:43;100139.88;;;4.74;84.95
73860;BME280;62197;51.632;13.700;2023-11-21T09:38:09;100157.09;;;4.89;84.49
73860;BME280;62197;51.632;13.700;2023-11-21T09:40:36;100157.63;;;4.94;85.60
73860;BME280;62197;51.632;13.700;2023-11-21T09:43:16;100154.19;;;4.94;84.55
73860;BME280;62197;51.632;13.700;2023-11-21T09:45:45;100153.44;;;4.79;85.17
73860;BME280;62197;51.632;13.700;2023-11-21T09:48:12;100162.22;;;4.51;86.09
73860;BME280;62197;51.632;13.700;2023-11-21T09:50:40;100165.47;;;4.55;86.36
73860;BME280;62197;51.632;13.700;2023-11-21T09:53:20;100154.34;;;4.39;86.90
73860;BME280;62197;51.632;13.700;2023-11-21T09:55:53;100170.00;;;4.24;87.48
73860;BME280;62197;51.632;13.700;2023-11-21T09:58:19;100172.50;;;4.26;87.44
73860;BME280;62197;51.632;13.700;2023-11-21T10:00:48;100174.63;;;4.33;87.08
73860;BME280;62197;51.632;13.700;2023-11-21T10:03:14;100183.00;;;4.39;86.08
73860;BME280;62197;51.632;13.700;2023-11-21T10:05:41;100174.69;;;4.46;85.96
73860;BME280;62197;51.632;13.700;2023-11-21T10:08:08;100187.47;;;4.63;86.17
73860;BME280;62197;51.632;13.700;2023-11-21T10:10:36;100181.66;;;4.46;86.73
73860;BME280;62197;51.632;13.700;2023-11-21T10:13:03;100189.22;;;4.36;86.61
73860;BME280;62197;51.632;13.700;2023-11-21T10:15:33;100192.44;;;4.54;85.88
73860;BME280;62197;51.632;13.700;2023-11-21T10:18:01;100193.75;;;4.47;85.95
73860;BME280;62197;51.632;13.700;2023-11-21T10:20:28;100186.47;;;4.25;86.43
73860;BME280;62197;51.632;13.700;2023-11-21T10:22:54;100195.53;;;4.05;87.60
73860;BME280;62197;51.632;13.700;2023-11-21T10:25:22;100209.94;;;4.11;87.53
73860;BME280;62197;51.632;13.700;2023-11-21T10:27:48;100207.53;;;4.08;87.42
73860;BME280;62197;51.632;13.700;2023-11-21T10:30:16;100200.94;;;4.02;86.89
73860;BME280;62197;51.632;13.700;2023-11-21T10:32:43;100212.25;;;4.01;86.49
73860;BME280;62197;51.632;13.700;2023-11-21T10:35:09;100217.66;;;3.98;86.71
73860;BME280;62197;51.632;13.700;2023-11-21T10:37:38;100216.81;;;3.83;86.84
73860;BME280;62197;51.632;13.700;2023-11-21T10:40:09;100225.91;;;3.76;88.10
73860;BME280;62197;51.632;13.700;2023-11-21T10:42:38;100214.19;;;3.69;88.57
73860;BME280;62197;51.632;13.700;2023-11-21T10:45:05;100217.56;;;3.71;89.20
73860;BME280;62197;51.632;13.700;2023-11-21T10:47:38;100218.56;;;3.69;89.10
73860;BME280;62197;51.632;13.700;2023-11-21T10:50:04;100218.13;;;3.62;89.05
73860;BME280;62197;51.632;13.700;2023-11-21T10:52:29;100229.16;;;3.65;89.48
73860;BME280;62197;51.632;13.700;2023-11-21T10:54:54;100231.56;;;3.69;89.48
73860;BME280;62197;51.632;13.700;2023-11-21T10:57:20;100233.16;;;3.71;89.42
73860;BME280;62197;51.632;13.700;2023-11-21T10:59:48;100238.19;;;3.74;89.30
73860;BME280;62197;51.632;13.700;2023-11-21T11:02:24;100239.00;;;3.75;89.29
73860;BME280;62197;51.632;13.700;2023-11-21T11:04:54;100239.75;;;3.77;88.78
73860;BME280;62197;51.632;13.700;2023-11-21T11:07:26;100240.97;;;3.71;88.73
73860;BME280;62197;51.632;13.700;2023-11-21T11:09:53;100250.34;;;3.74;88.46
73860;BME280;62197;51.632;13.700;2023-11-21T11:12:19;100245.59;;;3.66;88.45
73860;BME280;62197;51.632;13.700;2023-11-21T11:14:45;100250.06;;;3.64;89.37
73860;BME280;62197;51.632;13.700;2023-11-21T11:17:10;100252.56;;;3.65;88.84
73860;BME280;62197;51.632;13.700;2023-11-21T11:19:36;100243.66;;;3.55;88.41
73860;BME280;62197;51.632;13.700;2023-11-21T11:25:21;100256.81;;;3.38;87.99
73860;BME280;62197;51.632;13.700;2023-11-21T11:28:00;100264.44;;;3.41;87.58
73860;BME280;62197;51.632;13.700;2023-11-21T11:30:53;100259.84;;;3.30;87.94
73860;BME280;62197;51.632;13.700;2023-11-21T11:33:44;100262.66;;;3.42;88.02
73860;BME280;62197;51.632;13.700;2023-11-21T11:36:26;100269.72;;;3.40;86.81
73860;BME280;62197;51.632;13.700;2023-11-21T11:38:54;100271.13;;;3.45;87.19
73860;BME280;62197;51.632;13.700;2023-11-21T11:41:30;100269.19;;;3.49;86.84
73860;BME280;62197;51.632;13.700;2023-11-21T11:43:57;100280.16;;;3.54;86.46
73860;BME280;62197;51.632;13.700;2023-11-21T11:46:56;100280.91;;;3.56;86.73
73860;BME280;62197;51.632;13.700;2023-11-21T11:49:24;100281.59;;;3.44;86.27
73860;BME280;62197;51.632;13.700;2023-11-21T11:52:33;100287.56;;;3.46;86.83
73860;BME280;62197;51.632;13.700;2023-11-21T11:55:00;100288.78;;;3.54;85.74
73860;BME280;62197;51.632;13.700;2023-11-21T11:57:25;100299.03;;;3.57;86.23
73860;BME280;62197;51.632;13.700;2023-11-21T12:02:57;100292.84;;;3.44;85.94
73860;BME280;62197;51.632;13.700;2023-11-21T12:05:24;100306.16;;;3.54;85.41
73860;BME280;62197;51.632;13.700;2023-11-21T12:07:57;100309.19;;;3.46;86.02
73860;BME280;62197;51.632;13.700;2023-11-21T12:10:25;100303.75;;;3.51;85.17
73860;BME280;62197;51.632;13.700;2023-11-21T12:12:53;100297.88;;;3.47;84.27
73860;BME280;62197;51.632;13.700;2023-11-21T12:15:19;100307.84;;;3.55;83.78
73860;BME280;62197;51.632;13.700;2023-11-21T12:17:45;100308.09;;;3.64;83.81
73860;BME280;62197;51.632;13.700;2023-11-21T12:20:12;100314.28;;;3.63;83.72
73860;BME280;62197;51.632;13.700;2023-11-21T12:25:13;100319.00;;;3.57;84.98
73860;BME280;62197;51.632;13.700;2023-11-21T12:27:41;100327.72;;;3.56;84.73
73860;BME280;62197;51.632;13.700;2023-11-21T12:30:07;100327.72;;;3.56;84.94
73860;BME280;62197;51.632;13.700;2023-11-21T12:32:38;100322.28;;;3.45;83.39
73860;BME280;62197;51.632;13.700;2023-11-21T12:35:04;100332.44;;;3.49;84.09
73860;BME280;62197;51.632;13.700;2023-11-21T12:37:31;100332.19;;;3.38;84.84
73860;BME280;62197;51.632;13.700;2023-11-21T12:39:57;100334.72;;;3.40;85.28
73860;BME280;62197;51.632;13.700;2023-11-21T12:42:23;100331.09;;;3.42;85.56
73860;BME280;62197;51.632;13.700;2023-11-21T12:45:05;100339.16;;;3.38;85.80
73860;BME280;62197;51.632;13.700;2023-11-21T12:47:30;100347.88;;;3.37;85.47
73860;BME280;62197;51.632;13.700;2023-11-21T12:49:56;100346.56;;;3.29;85.81
73860;BME280;62197;51.632;13.700;2023-11-21T12:52:24;100343.69;;;3.34;86.02
73860;BME280;62197;51.632;13.700;2023-11-21T12:54:50;100348.22;;;3.30;85.94
73860;BME280;62197;51.632;13.700;2023-11-21T12:57:15;100351.00;;;3.27;87.91
73860;BME280;62197;51.632;13.700;2023-11-21T12:59:40;100358.97;;;3.24;87.47
73860;BME280;62197;51.632;13.700;2023-11-21T13:02:07;100360.22;;;3.17;87.49